sensor_id;sensor_type;location;lat;lon;timestamp;pressure;altitude;pressure_sealevel;temperature;humidity
85000;BME280;75320;51.608;7.952;2024-01-15T00:01:14;99479.66;;;0.68;94.65
85000;BME280;75320;51.608;7.952;2024-01-15T00:03:39;99485.81;;;0.67;94.35
85000;BME280;75320;51.608;7.952;2024-01-15T00:06:05;99481.28;;;0.69;94.32
85000;BME280;75320;51.608;7.952;2024-01-15T00:08:30;99470.63;;;0.72;93.90
85000;BME280;75320;51.608;7.952;2024-01-15T00:10:55;99468.88;;;0.73;94.08
85000;BME280;75320;51.608;7.952;2024-01-15T00:13:21;99463.53;;;0.74;93.65
85000;BME280;75320;51.608;7.952;2024-01-15T00:15:47;99464.19;;;0.76;94.13
85000;BME280;75320;51.608;7.952;2024-01-15T00:18:12;99455.03;;;0.82;93.27
85000;BME280;75320;51.608;7.952;2024-01-15T00:20:38;99449.16;;;0.80;93.65
85000;BME280;75320;51.608;7.952;2024-01-15T00:23:03;99450.81;;;0.81;93.91
85000;BME280;75320;51.608;7.952;2024-01-15T00:25:28;99446.13;;;0.85;93.35
85000;BME280;75320;51.608;7.952;2024-01-15T00:27:54;99457.91;;;0.79;93.48
85000;BME280;75320;51.608;7.952;2024-01-15T00:30:19;99465.28;;;0.84;93.28
85000;BME280;75320;51.608;7.952;2024-01-15T00:32:44;99453.69;;;0.78;93.97
85000;BME280;75320;51.608;7.952;2024-01-15T00:35:11;99462.38;;;0.87;93.55
85000;BME280;75320;51.608;7.952;2024-01-15T00:37:37;99444.53;;;0.84;93.17
85000;BME280;75320;51.608;7.952;2024-01-15T00:40:03;99455.81;;;0.92;92.81
85000;BME280;75320;51.608;7.952;2024-01-15T00:42:28;99450.75;;;0.91;93.47
85000;BME280;75320;51.608;7.952;2024-01-15T00:44:54;99454.75;;;0.85;93.12
85000;BME280;75320;51.608;7.952;2024-01-15T00:47:19;99447.63;;;0.87;93.12
85000;BME280;75320;51.608;7.952;2024-01-15T00:49:44;99453.50;;;0.89;93.53
85000;BME280;75320;51.608;7.952;2024-01-15T00:52:10;99456.91;;;0.90;92.60
85000;BME280;75320;51.608;7.952;2024-01-15T00:54:35;99468.63;;;0.94;92.68
85000;BME280;75320;51.608;7.952;2024-01-15T00:57:01;99466.44;;;0.99;92.99
85000;BME280;75320;51.608;7.952;2024-01-15T00:59:26;99452.00;;;0.87;92.55
85000;BME280;75320;51.608;7.952;2024-01-15T01:01:51;99466.03;;;0.94;93.30
85000;BME280;75320;51.608;7.952;2024-01-15T01:04:17;99454.84;;;0.93;93.37
85000;BME280;75320;51.608;7.952;2024-01-15T01:06:42;99456.06;;;0.99;93.03
85000;BME280;75320;51.608;7.952;2024-01-15T01:09:07;99459.06;;;0.94;92.73
85000;BME280;75320;51.608;7.952;2024-01-15T01:11:33;99464.38;;;0.93;93.41
85000;BME280;75320;51.608;7.952;2024-01-15T01:13:58;99455.81;;;0.92;92.89
85000;BME280;75320;51.608;7.952;2024-01-15T01:16:24;99448.03;;;0.92;93.20
85000;BME280;75320;51.608;7.952;2024-01-15T01:18:51;99454.78;;;1.03;92.43
85000;BME280;75320;51.608;7.952;2024-01-15T01:21:16;99439.94;;;0.95;92.53
85000;BME280;75320;51.608;7.952;2024-01-15T01:23:41;99442.69;;;0.94;92.93
85000;BME280;75320;51.608;7.952;2024-01-15T01:26:08;99449.22;;;0.98;92.64
85000;BME280;75320;51.608;7.952;2024-01-15T01:28:33;99443.75;;;1.01;92.91
85000;BME280;75320;51.608;7.952;2024-01-15T01:30:59;99442.53;;;0.95;93.26
85000;BME280;75320;51.608;7.952;2024-01-15T01:33:25;99445.38;;;1.02;92.57
85000;BME280;75320;51.608;7.952;2024-01-15T01:35:50;99442.69;;;0.94;93.27
85000;BME280;75320;51.608;7.952;2024-01-15T01:38:15;99434.50;;;0.89;93.02
85000;BME280;75320;51.608;7.952;2024-01-15T01:40:40;99451.66;;;0.99;93.03
85000;BME280;75320;51.608;7.952;2024-01-15T01:43:06;99449.06;;;0.99;92.26
85000;BME280;75320;51.608;7.952;2024-01-15T01:45:31;99443.06;;;0.99;93.10
85000;BME280;75320;51.608;7.952;2024-01-15T01:47:56;99440.59;;;0.97;92.96
85000;BME280;75320;51.608;7.952;2024-01-15T01:50:22;99442.53;;;0.95;92.97
85000;BME280;75320;51.608;7.952;2024-01-15T01:52:49;99447.97;;;1.02;92.36
85000;BME280;75320;51.608;7.952;2024-01-15T01:55:15;99446.19;;;1.02;92.74
85000;BME280;75320;51.608;7.952;2024-01-15T01:57:41;99447.69;;;1.05;92.43
85000;BME280;75320;51.608;7.952;2024-01-15T02:00:07;99451.09;;;1.05;92.36
85000;BME280;75320;51.608;7.952;2024-01-15T02:02:33;99445.75;;;1.07;92.36
85000;BME280;75320;51.608;7.952;2024-01-15T02:04:59;99443.16;;;1.07;93.01
85000;BME280;75320;51.608;7.952;2024-01-15T02:07:24;99446.69;;;1.06;92.73
85000;BME280;75320;51.608;7.952;2024-01-15T02:09:49;99451.63;;;1.09;91.95
85000;BME280;75320;51.608;7.952;2024-01-15T02:12:15;99445.22;;;1.03;92.73
85000;BME280;75320;51.608;7.952;2024-01-15T02:14:41;99439.75;;;1.06;92.45
85000;BME280;75320;51.608;7.952;2024-01-15T02:17:07;99435.06;;;1.10;92.62
85000;BME280;75320;51.608;7.952;2024-01-15T02:19:33;99434.72;;;1.05;92.03
85000;BME280;75320;51.608;7.952;2024-01-15T02:21:58;99431.56;;;1.01;92.71
85000;BME280;75320;51.608;7.952;2024-01-15T02:24:24;99433.50;;;0.99;92.12
85000;BME280;75320;51.608;7.952;2024-01-15T02:26:52;99431.06;;;0.98;92.79
85000;BME280;75320;51.608;7.952;2024-01-15T02:29:17;99429.13;;;1.00;91.99
85000;BME280;75320;51.608;7.952;2024-01-15T02:31:43;99427.13;;;0.94;92.27
85000;BME280;75320;51.608;7.952;2024-01-15T02:34:08;99436.41;;;0.96;92.33
85000;BME280;75320;51.608;7.952;2024-01-15T02:36:33;99438.56;;;1.01;92.35
85000;BME280;75320;51.608;7.952;2024-01-15T02:38:59;99444.69;;;1.00;92.08
85000;BME280;75320;51.608;7.952;2024-01-15T02:41:24;99436.91;;;1.00;91.89
85000;BME280;75320;51.608;7.952;2024-01-15T02:43:49;99435.97;;;1.01;91.84
85000;BME280;75320;51.608;7.952;2024-01-15T02:46:15;99448.50;;;1.05;91.82
85000;BME280;75320;51.608;7.952;2024-01-15T02:48:41;99451.09;;;1.05;92.07
85000;BME280;75320;51.608;7.952;2024-01-15T02:51:06;99439.97;;;1.13;91.51
85000;BME280;75320;51.608;7.952;2024-01-15T02:53:32;99442.28;;;1.16;91.34
85000;BME280;75320;51.608;7.952;2024-01-15T02:55:57;99428.78;;;1.12;91.74
85000;BME280;75320;51.608;7.952;2024-01-15T02:58:22;99432.59;;;1.18;91.26
85000;BME280;75320;51.608;7.952;2024-01-15T03:00:47;99436.72;;;1.11;91.03
85000;BME280;75320;51.608;7.952;2024-01-15T03:03:14;99426.78;;;1.06;91.20
85000;BME280;75320;51.608;7.952;2024-01-15T03:05:40;99420.75;;;1.06;91.18
85000;BME280;75320;51.608;7.952;2024-01-15T03:08:05;99421.72;;;1.05;90.96
85000;BME280;75320;51.608;7.952;2024-01-15T03:10:30;99425.28;;;1.04;91.46
85000;BME280;75320;51.608;7.952;2024-01-15T03:12:57;99423.50;;;1.04;91.24
85000;BME280;75320;51.608;7.952;2024-01-15T03:15:22;99416.16;;;1.00;91.29
85000;BME280;75320;51.608;7.952;2024-01-15T03:17:48;99422.00;;;1.02;90.92
85000;BME280;75320;51.608;7.952;2024-01-15T03:20:14;99417.50;;;1.04;91.28
85000;BME280;75320;51.608;7.952;2024-01-15T03:22:39;99421.72;;;1.05;90.85
85000;BME280;75320;51.608;7.952;2024-01-15T03:25:06;99414.00;;;0.95;91.07
85000;BME280;75320;51.608;7.952;2024-01-15T03:27:32;99421.41;;;0.90;91.53
85000;BME280;75320;51.608;7.952;2024-01-15T03:29:58;99424.53;;;0.94;91.04
85000;BME280;75320;51.608;7.952;2024-01-15T03:32:24;99439.50;;;1.00;91.19
85000;BME280;75320;51.608;7.952;2024-01-15T03:34:49;99440.16;;;1.02;91.24
85000;BME280;75320;51.608;7.952;2024-01-15T03:37:14;99432.22;;;1.03;91.04
85000;BME280;75320;51.608;7.952;2024-01-15T03:39:40;99436.47;;;1.04;90.84
85000;BME280;75320;51.608;7.952;2024-01-15T03:42:06;99430.47;;;1.04;90.84
85000;BME280;75320;51.608;7.952;2024-01-15T03:44:31;99430.63;;;1.02;91.04
85000;BME280;75320;51.608;7.952;2024-01-15T03:46:57;99431.81;;;1.08;90.64
85000;BME280;75320;51.608;7.952;2024-01-15T03:49:23;99429.09;;;1.09;90.68
85000;BME280;75320;51.608;7.952;2024-01-15T03:51:48;99430.84;;;1.09;90.98
85000;BME280;75320;51.608;7.952;2024-01-15T03:54:15;99434.28;;;1.09;91.13
85000;BME280;75320;51.608;7.952;2024-01-15T03:56:40;99425.94;;;1.06;91.09
85000;BME280;75320;51.608;7.952;2024-01-15T03:59:05;99422.75;;;1.12;90.55
85000;BME280;75320;51.608;7.952;2024-01-15T04:01:31;99417.81;;;1.01;90.59
85000;BME280;75320;51.608;7.952;2024-01-15T04:03:56;99416.66;;;1.03;90.63
85000;BME280;75320;51.608;7.952;2024-01-15T04:06:21;99419.56;;;1.00;90.45
85000;BME280;75320;51.608;7.952;2024-01-15T04:08:47;99410.81;;;1.01;90.09
85000;BME280;75320;51.608;7.952;2024-01-15T04:11:12;99406.59;;;1.00;91.04
85000;BME280;75320;51.608;7.952;2024-01-15T04:13:37;99414.44;;;0.91;90.38
85000;BME280;75320;51.608;7.952;2024-01-15T04:16:03;99413.63;;;0.90;90.78
85000;BME280;75320;51.608;7.952;2024-01-15T04:18:28;99403.78;;;0.94;90.93
85000;BME280;75320;51.608;7.952;2024-01-15T04:20:55;99401.84;;;0.96;90.68
85000;BME280;75320;51.608;7.952;2024-01-15T04:23:21;99411.78;;;1.00;90.05
85000;BME280;75320;51.608;7.952;2024-01-15T04:25:46;99406.59;;;1.00;90.12
85000;BME280;75320;51.608;7.952;2024-01-15T04:28:12;99401.09;;;1.03;90.20
85000;BME280;75320;51.608;7.952;2024-01-15T04:30:37;99390.44;;;1.06;89.99
85000;BME280;75320;51.608;7.952;2024-01-15T04:33:03;99395.78;;;1.05;90.08
85000;BME280;75320;51.608;7.952;2024-01-15T04:35:30;99387.03;;;1.06;89.94
85000;BME280;75320;51.608;7.952;2024-01-15T04:37:56;99390.22;;;1.00;90.53
85000;BME280;75320;51.608;7.952;2024-01-15T04:40:21;99382.50;;;1.08;90.25
85000;BME280;75320;51.608;7.952;2024-01-15T04:42:46;99384.44;;;1.06;90.06
85000;BME280;75320;51.608;7.952;2024-01-15T04:45:12;99379.81;;;1.00;90.44
85000;BME280;75320;51.608;7.952;2024-01-15T04:47:37;99395.25;;;1.01;90.65
85000;BME280;75320;51.608;7.952;2024-01-15T04:50:04;99392.59;;;1.11;90.24
85000;BME280;75320;51.608;7.952;2024-01-15T04:52:29;99384.31;;;1.07;90.14
85000;BME280;75320;51.608;7.952;2024-01-15T04:54:56;99375.38;;;1.10;90.22
85000;BME280;75320;51.608;7.952;2024-01-15T04:57:21;99381.56;;;1.09;90.88
85000;BME280;75320;51.608;7.952;2024-01-15T04:59:46;99375.38;;;1.10;90.29
85000;BME280;75320;51.608;7.952;2024-01-15T05:02:12;99374.72;;;1.08;90.72
85000;BME280;75320;51.608;7.952;2024-01-15T05:04:37;99382.59;;;1.16;90.41
85000;BME280;75320;51.608;7.952;2024-01-15T05:07:02;99385.31;;;1.14;90.66
85000;BME280;75320;51.608;7.952;2024-01-15T05:09:28;99367.03;;;1.16;90.54
85000;BME280;75320;51.608;7.952;2024-01-15T05:11:53;99367.81;;;1.16;90.87
85000;BME280;75320;51.608;7.952;2024-01-15T05:14:20;99374.28;;;1.12;90.88
85000;BME280;75320;51.608;7.952;2024-01-15T05:16:49;99363.06;;;1.12;90.03
85000;BME280;75320;51.608;7.952;2024-01-15T05:19:15;99363.22;;;1.10;90.55
85000;BME280;75320;51.608;7.952;2024-01-15T05:21:40;99360.63;;;1.10;90.59
85000;BME280;75320;51.608;7.952;2024-01-15T05:24:05;99353.66;;;1.11;90.39
85000;BME280;75320;51.608;7.952;2024-01-15T05:26:31;99348.03;;;1.15;89.88
85000;BME280;75320;51.608;7.952;2024-01-15T05:28:56;99346.03;;;1.09;90.46
85000;BME280;75320;51.608;7.952;2024-01-15T05:31:22;99340.03;;;1.09;90.60
85000;BME280;75320;51.608;7.952;2024-01-15T05:33:47;99339.06;;;1.10;89.96
85000;BME280;75320;51.608;7.952;2024-01-15T05:36:12;99354.50;;;1.11;90.08
85000;BME280;75320;51.608;7.952;2024-01-15T05:38:38;99344.41;;;1.08;90.48
85000;BME280;75320;51.608;7.952;2024-01-15T05:41:05;99338.53;;;1.06;90.53
85000;BME280;75320;51.608;7.952;2024-01-15T05:43:30;99355.28;;;1.12;90.18
85000;BME280;75320;51.608;7.952;2024-01-15T05:45:55;99346.56;;;1.13;90.81
85000;BME280;75320;51.608;7.952;2024-01-15T05:48:20;99342.69;;;1.17;90.69
85000;BME280;75320;51.608;7.952;2024-01-15T05:50:46;99347.06;;;1.16;89.92
85000;BME280;75320;51.608;7.952;2024-01-15T05:53:11;99346.78;;;1.19;90.02
85000;BME280;75320;51.608;7.952;2024-01-15T05:55:36;99345.28;;;1.17;89.86
85000;BME280;75320;51.608;7.952;2024-01-15T05:58:03;99346.34;;;1.24;90.09
85000;BME280;75320;51.608;7.952;2024-01-15T06:00:29;99350.84;;;1.22;89.58
85000;BME280;75320;51.608;7.952;2024-01-15T06:02:54;99350.03;;;1.21;89.89
85000;BME280;75320;51.608;7.952;2024-01-15T06:05:20;99349.22;;;1.21;90.09
85000;BME280;75320;51.608;7.952;2024-01-15T06:07:45;99342.91;;;1.23;90.17
85000;BME280;75320;51.608;7.952;2024-01-15T06:10:10;99350.53;;;1.25;90.29
85000;BME280;75320;51.608;7.952;2024-01-15T06:12:35;99339.50;;;1.23;90.26
85000;BME280;75320;51.608;7.952;2024-01-15T06:15:01;99335.28;;;1.22;90.30
85000;BME280;75320;51.608;7.952;2024-01-15T06:17:27;99337.06;;;1.21;90.19
85000;BME280;75320;51.608;7.952;2024-01-15T06:19:52;99348.78;;;1.25;89.62
85000;BME280;75320;51.608;7.952;2024-01-15T06:22:17;99341.66;;;1.27;90.29
85000;BME280;75320;51.608;7.952;2024-01-15T06:24:43;99337.28;;;1.28;89.15
85000;BME280;75320;51.608;7.952;2024-01-15T06:27:08;99337.78;;;1.31;89.94
85000;BME280;75320;51.608;7.952;2024-01-15T06:29:37;99345.28;;;1.34;89.62
85000;BME280;75320;51.608;7.952;2024-01-15T06:32:03;99342.69;;;1.34;89.71
85000;BME280;75320;51.608;7.952;2024-01-15T06:34:28;99338.44;;;1.33;89.19
85000;BME280;75320;51.608;7.952;2024-01-15T06:36:54;99332.16;;;1.36;89.45
85000;BME280;75320;51.608;7.952;2024-01-15T06:39:21;99333.13;;;1.35;89.37
85000;BME280;75320;51.608;7.952;2024-01-15T06:41:46;99334.06;;;1.34;89.56
85000;BME280;75320;51.608;7.952;2024-01-15T06:44:12;99338.31;;;1.35;90.05
85000;BME280;75320;51.608;7.952;2024-01-15T06:46:44;99334.22;;;1.32;90.02
85000;BME280;75320;51.608;7.952;2024-01-15T06:49:10;99326.28;;;1.34;90.26
85000;BME280;75320;51.608;7.952;2024-01-15T06:51:36;99331.19;;;1.37;89.52
85000;BME280;75320;51.608;7.952;2024-01-15T06:54:01;99326.94;;;1.36;89.36
85000;BME280;75320;51.608;7.952;2024-01-15T06:56:27;99329.56;;;1.36;89.26
85000;BME280;75320;51.608;7.952;2024-01-15T06:58:52;99334.75;;;1.36;89.92
85000;BME280;75320;51.608;7.952;2024-01-15T07:01:17;99334.06;;;1.34;90.23
85000;BME280;75320;51.608;7.952;2024-01-15T07:03:43;99335.28;;;1.39;89.41
85000;BME280;75320;51.608;7.952;2024-01-15T07:06:08;99330.53;;;1.35;89.72
85000;BME280;75320;51.608;7.952;2024-01-15T07:08:33;99338.00;;;1.38;89.17
85000;BME280;75320;51.608;7.952;2024-01-15T07:10:58;99333.25;;;1.33;89.23
85000;BME280;75320;51.608;7.952;2024-01-15T07:13:25;99339.81;;;1.37;89.98
85000;BME280;75320;51.608;7.952;2024-01-15T07:15:50;99339.09;;;1.35;89.35
85000;BME280;75320;51.608;7.952;2024-01-15T07:18:16;99328.06;;;1.33;89.69
85000;BME280;75320;51.608;7.952;2024-01-15T07:20:41;99336.88;;;1.40;89.60
85000;BME280;75320;51.608;7.952;2024-01-15T07:23:06;99331.84;;;1.39;89.33
85000;BME280;75320;51.608;7.952;2024-01-15T07:25:32;99336.50;;;1.35;90.42
85000;BME280;75320;51.608;7.952;2024-01-15T07:27:59;99336.69;;;1.34;90.07
85000;BME280;75320;51.608;7.952;2024-01-15T07:30:24;99335.78;;;1.43;89.79
85000;BME280;75320;51.608;7.952;2024-01-15T07:32:49;99341.13;;;1.41;89.80
85000;BME280;75320;51.608;7.952;2024-01-15T07:35:15;99345.94;;;1.36;89.79
85000;BME280;75320;51.608;7.952;2024-01-15T07:37:40;99338.81;;;1.38;89.80
85000;BME280;75320;51.608;7.952;2024-01-15T07:40:06;99344.19;;;1.37;89.95
85000;BME280;75320;51.608;7.952;2024-01-15T07:42:34;99345.00;;;1.37;89.73
85000;BME280;75320;51.608;7.952;2024-01-15T07:44:59;99338.97;;;1.37;89.80
85000;BME280;75320;51.608;7.952;2024-01-15T07:47:25;99344.00;;;1.38;90.08
85000;BME280;75320;51.608;7.952;2024-01-15T07:49:50;99343.34;;;1.36;89.85
85000;BME280;75320;51.608;7.952;2024-01-15T07:52:15;99337.34;;;1.36;89.09
85000;BME280;75320;51.608;7.952;2024-01-15T07:54:41;99346.78;;;1.37;89.36
85000;BME280;75320;51.608;7.952;2024-01-15T07:57:07;99328.44;;;1.38;89.14
85000;BME280;75320;51.608;7.952;2024-01-15T07:59:34;99336.88;;;1.40;89.93
85000;BME280;75320;51.608;7.952;2024-01-15T08:02:00;99346.44;;;1.40;90.10
85000;BME280;75320;51.608;7.952;2024-01-15T08:04:25;99344.00;;;1.38;89.93
85000;BME280;75320;51.608;7.952;2024-01-15T08:06:51;99341.72;;;1.35;89.65
85000;BME280;75320;51.608;7.952;2024-01-15T08:09:16;99345.19;;;1.44;89.57
85000;BME280;75320;51.608;7.952;2024-01-15T08:11:42;99347.78;;;1.44;89.43
85000;BME280;75320;51.608;7.952;2024-01-15T08:14:09;99340.00;;;1.44;89.69
85000;BME280;75320;51.608;7.952;2024-01-15T08:16:36;99340.31;;;1.41;90.13
85000;BME280;75320;51.608;7.952;2024-01-15T08:19:01;99344.47;;;1.34;90.27
85000;BME280;75320;51.608;7.952;2024-01-15T08:21:27;99345.22;;;1.26;90.57
85000;BME280;75320;51.608;7.952;2024-01-15T08:23:57;99345.66;;;1.22;90.81
85000;BME280;75320;51.608;7.952;2024-01-15T08:26:22;99343.50;;;1.17;91.06
85000;BME280;75320;51.608;7.952;2024-01-15T08:28:48;99343.50;;;1.17;91.91
85000;BME280;75320;51.608;7.952;2024-01-15T08:31:13;99346.41;;;1.14;91.93
85000;BME280;75320;51.608;7.952;2024-01-15T08:33:38;99344.16;;;1.02;92.43
85000;BME280;75320;51.608;7.952;2024-01-15T08:36:04;99343.44;;;1.09;91.94
85000;BME280;75320;51.608;7.952;2024-01-15T08:38:29;99344.84;;;1.04;92.65
85000;BME280;75320;51.608;7.952;2024-01-15T08:40:55;99345.44;;;0.98;92.74
85000;BME280;75320;51.608;7.952;2024-01-15T08:43:21;99341.22;;;0.97;93.27
85000;BME280;75320;51.608;7.952;2024-01-15T08:45:47;99336.78;;;1.07;92.93
85000;BME280;75320;51.608;7.952;2024-01-15T08:48:13;99346.31;;;1.06;92.82
85000;BME280;75320;51.608;7.952;2024-01-15T08:50:39;99344.56;;;1.07;92.99
85000;BME280;75320;51.608;7.952;2024-01-15T08:53:05;99348.03;;;0.98;92.88
85000;BME280;75320;51.608;7.952;2024-01-15T08:55:30;99347.53;;;0.94;93.00
85000;BME280;75320;51.608;7.952;2024-01-15T08:57:56;99356.78;;;0.97;93.12
85000;BME280;75320;51.608;7.952;2024-01-15T09:00:21;99355.44;;;0.93;93.52
85000;BME280;75320;51.608;7.952;2024-01-15T09:02:46;99351.97;;;1.02;93.36
85000;BME280;75320;51.608;7.952;2024-01-15T09:05:12;99362.41;;;0.92;93.09
85000;BME280;75320;51.608;7.952;2024-01-15T09:07:37;99364.03;;;0.93;93.80
85000;BME280;75320;51.608;7.952;2024-01-15T09:10:04;99362.78;;;0.97;93.28
85000;BME280;75320;51.608;7.952;2024-01-15T09:12:31;99356.03;;;1.04;93.00
85000;BME280;75320;51.608;7.952;2024-01-15T09:14:58;99356.47;;;1.00;93.52
85000;BME280;75320;51.608;7.952;2024-01-15T09:17:23;99351.28;;;1.00;92.91
85000;BME280;75320;51.608;7.952;2024-01-15T09:19:50;99341.28;;;1.05;92.85
85000;BME280;75320;51.608;7.952;2024-01-15T09:22:15;99353.00;;;1.09;93.56
85000;BME280;75320;51.608;7.952;2024-01-15T09:24:44;99350.78;;;1.14;93.07
85000;BME280;75320;51.608;7.952;2024-01-15T09:27:11;99353.28;;;1.23;92.91
85000;BME280;75320;51.608;7.952;2024-01-15T09:29:37;99345.78;;;1.20;92.76
85000;BME280;75320;51.608;7.952;2024-01-15T09:32:05;99349.59;;;1.26;92.42
85000;BME280;75320;51.608;7.952;2024-01-15T09:34:30;99349.00;;;1.32;92.83
85000;BME280;75320;51.608;7.952;2024-01-15T09:36:55;99349.81;;;1.32;92.75
85000;BME280;75320;51.608;7.952;2024-01-15T09:39:21;99354.25;;;1.40;92.99
85000;BME280;75320;51.608;7.952;2024-01-15T09:41:49;99355.81;;;1.33;92.57
85000;BME280;75320;51.608;7.952;2024-01-15T09:44:15;99357.22;;;1.27;92.61
85000;BME280;75320;51.608;7.952;2024-01-15T09:46:41;99357.88;;;1.29;92.49
85000;BME280;75320;51.608;7.952;2024-01-15T09:49:08;99360.19;;;1.32;92.98
85000;BME280;75320;51.608;7.952;2024-01-15T09:51:35;99353.56;;;1.38;92.68
85000;BME280;75320;51.608;7.952;2024-01-15T09:54:01;99357.00;;;1.38;92.40
85000;BME280;75320;51.608;7.952;2024-01-15T09:56:27;99348.38;;;1.38;92.80
85000;BME280;75320;51.608;7.952;2024-01-15T09:58:52;99350.03;;;1.39;92.15
85000;BME280;75320;51.608;7.952;2024-01-15T10:01:20;99351.31;;;1.35;92.61
85000;BME280;75320;51.608;7.952;2024-01-15T10:03:46;99357.16;;;1.37;92.77
85000;BME280;75320;51.608;7.952;2024-01-15T10:06:15;99350.31;;;1.36;92.43
85000;BME280;75320;51.608;7.952;2024-01-15T10:08:50;99350.97;;;1.38;92.52
85000;BME280;75320;51.608;7.952;2024-01-15T10:11:16;99358.16;;;1.44;92.16
85000;BME280;75320;51.608;7.952;2024-01-15T10:13:43;99350.31;;;1.36;92.36
85000;BME280;75320;51.608;7.952;2024-01-15T10:16:09;99349.16;;;1.30;91.79
85000;BME280;75320;51.608;7.952;2024-01-15T10:18:35;99354.25;;;1.40;92.37
85000;BME280;75320;51.608;7.952;2024-01-15T10:21:03;99352.41;;;1.32;91.85
85000;BME280;75320;51.608;7.952;2024-01-15T10:23:29;99350.69;;;1.41;91.46
85000;BME280;75320;51.608;7.952;2024-01-15T10:25:56;99357.00;;;1.38;91.51
85000;BME280;75320;51.608;7.952;2024-01-15T10:28:22;99340.59;;;1.38;92.14
85000;BME280;75320;51.608;7.952;2024-01-15T10:30:52;99339.66;;;1.39;91.25
85000;BME280;75320;51.608;7.952;2024-01-15T10:33:21;99339.19;;;1.43;91.96
85000;BME280;75320;51.608;7.952;2024-01-15T10:35:50;99344.91;;;1.47;90.98
85000;BME280;75320;51.608;7.952;2024-01-15T10:38:15;99339.81;;;1.37;91.69
85000;BME280;75320;51.608;7.952;2024-01-15T10:40:43;99342.41;;;1.37;91.94
85000;BME280;75320;51.608;7.952;2024-01-15T10:43:08;99337.06;;;1.39;91.95
85000;BME280;75320;51.608;7.952;2024-01-15T10:45:34;99339.28;;;1.34;91.77
85000;BME280;75320;51.608;7.952;2024-01-15T10:47:59;99347.06;;;1.34;92.34
85000;BME280;75320;51.608;7.952;2024-01-15T10:50:29;99348.16;;;1.31;91.58
85000;BME280;75320;51.608;7.952;2024-01-15T10:52:55;99340.91;;;1.35;92.23
85000;BME280;75320;51.608;7.952;2024-01-15T10:55:21;99339.66;;;1.39;91.69
85000;BME280;75320;51.608;7.952;2024-01-15T10:57:49;99331.09;;;1.46;91.64
85000;BME280;75320;51.608;7.952;2024-01-15T11:00:15;99342.47;;;1.45;90.92
85000;BME280;75320;51.608;7.952;2024-01-15T11:02:41;99329.34;;;1.29;91.10
85000;BME280;75320;51.608;7.952;2024-01-15T11:05:08;99334.75;;;1.36;90.92
85000;BME280;75320;51.608;7.952;2024-01-15T11:07:33;99337.13;;;1.29;91.21
85000;BME280;75320;51.608;7.952;2024-01-15T11:10:03;99352.53;;;1.48;91.89
85000;BME280;75320;51.608;7.952;2024-01-15T11:12:28;99344.59;;;1.50;89.99
85000;BME280;75320;51.608;7.952;2024-01-15T11:15:02;99347.91;;;1.60;90.06
85000;BME280;75320;51.608;7.952;2024-01-15T11:17:59;99337.81;;;1.57;89.94
85000;BME280;75320;51.608;7.952;2024-01-15T11:20:30;99331.84;;;1.57;89.85
85000;BME280;75320;51.608;7.952;2024-01-15T11:22:57;99333.06;;;1.52;90.14
85000;BME280;75320;51.608;7.952;2024-01-15T11:25:24;99332.28;;;1.52;90.07
85000;BME280;75320;51.608;7.952;2024-01-15T11:27:59;99325.22;;;1.62;90.19
85000;BME280;75320;51.608;7.952;2024-01-15T11:30:25;99322.59;;;1.62;88.84
85000;BME280;75320;51.608;7.952;2024-01-15T11:32:51;99334.28;;;1.58;89.76
85000;BME280;75320;51.608;7.952;2024-01-15T11:35:16;99327.22;;;1.50;90.54
85000;BME280;75320;51.608;7.952;2024-01-15T11:40:20;99327.59;;;1.81;89.52
85000;BME280;75320;51.608;7.952;2024-01-15T11:42:46;99328.25;;;1.83;89.95
85000;BME280;75320;51.608;7.952;2024-01-15T11:45:13;99328.63;;;1.88;89.24
85000;BME280;75320;51.608;7.952;2024-01-15T11:50:21;99321.09;;;1.77;89.52
85000;BME280;75320;51.608;7.952;2024-01-15T11:52:52;99329.34;;;1.73;88.96
85000;BME280;75320;51.608;7.952;2024-01-15T11:55:39;99329.03;;;1.76;89.35
85000;BME280;75320;51.608;7.952;2024-01-15T11:58:11;99334.53;;;1.73;89.35
85000;BME280;75320;51.608;7.952;2024-01-15T12:00:52;99327.09;;;1.78;89.18
85000;BME280;75320;51.608;7.952;2024-01-15T12:03:20;99321.38;;;1.74;87.76
85000;BME280;75320;51.608;7.952;2024-01-15T12:05:46;99324.84;;;1.83;88.42
85000;BME280;75320;51.608;7.952;2024-01-15T12:08:11;99324.84;;;1.83;88.18
85000;BME280;75320;51.608;7.952;2024-01-15T12:10:38;99319.25;;;1.70;87.82
85000;BME280;75320;51.608;7.952;2024-01-15T12:13:10;99334.22;;;1.76;87.53
85000;BME280;75320;51.608;7.952;2024-01-15T12:15:35;99337.50;;;1.78;88.14
85000;BME280;75320;51.608;7.952;2024-01-15T12:18:02;99324.78;;;1.75;87.80
85000;BME280;75320;51.608;7.952;2024-01-15T12:20:31;99327.50;;;1.65;88.29
85000;BME280;75320;51.608;7.952;2024-01-15T12:22:57;99334.03;;;1.69;88.26
85000;BME280;75320;51.608;7.952;2024-01-15T12:25:24;99332.38;;;1.68;87.64
85000;BME280;75320;51.608;7.952;2024-01-15T12:27:51;99329.13;;;1.66;87.58
85000;BME280;75320;51.608;7.952;2024-01-15T12:30:18;99326.03;;;1.63;87.85
85000;BME280;75320;51.608;7.952;2024-01-15T12:32:43;99330.81;;;1.75;88.35
85000;BME280;75320;51.608;7.952;2024-01-15T12:35:13;99334.72;;;1.79;87.62
85000;BME280;75320;51.608;7.952;2024-01-15T12:37:43;99332.97;;;1.80;87.00
85000;BME280;75320;51.608;7.952;2024-01-15T12:40:09;99334.06;;;1.77;86.84
85000;BME280;75320;51.608;7.952;2024-01-15T12:42:36;99331.63;;;1.76;86.99
85000;BME280;75320;51.608;7.952;2024-01-15T12:45:03;99342.16;;;1.74;86.31
85000;BME280;75320;51.608;7.952;2024-01-15T12:47:30;99349.28;;;1.72;85.92
85000;BME280;75320;51.608;7.952;2024-01-15T12:49:57;99346.78;;;1.80;86.49
85000;BME280;75320;51.608;7.952;2024-01-15T12:52:27;99332.09;;;1.71;86.08
85000;BME280;75320;51.608;7.952;2024-01-15T12:54:52;99334.44;;;1.82;86.58
85000;BME280;75320;51.608;7.952;2024-01-15T12:57:18;99329.00;;;1.93;85.31
85000;BME280;75320;51.608;7.952;2024-01-15T12:59:44;99329.66;;;1.95;85.93
85000;BME280;75320;51.608;7.952;2024-01-15T13:02:12;99330.25;;;1.89;85.59
85000;BME280;75320;51.608;7.952;2024-01-15T13:04:38;99332.91;;;1.97;86.24
85000;BME280;75320;51.608;7.952;2024-01-15T13:07:04;99330.81;;;2.01;85.16
85000;BME280;75320;51.608;7.952;2024-01-15T13:09:29;99348.59;;;1.88;85.29